CET,Max TemperatureF,Mean TemperatureF,Min TemperatureF,Max Dew PointF,MeanDew PointF,Min DewpointF,Max Humidity, Mean Humidity, Min Humidity, Max Sea Level PressureIn, Mean Sea Level PressureIn, Min Sea Level PressureIn, Max VisibilityMiles, Mean VisibilityMiles, Min VisibilityMiles, Max Wind SpeedMPH, Mean Wind SpeedMPH, Max Gust SpeedMPH,PrecipitationIn, CloudCover, Events, WindDirDegrees
2012-11-1,51,48,44,46,43,39,93,85,76,29.18,29.00,28.94,6,6,3,30,10,40,0.00,7,Rain-Thunderstorm,199
2012-11-2,50,46,41,41,39,37,93,83,66,29.47,29.34,29.18,6,6,4,18,14,33,0.00,6,Rain,216
2012-11-3,50,46,42,45,42,36,100,87,66,29.56,29.46,29.42,6,6,4,16,9,28,0.00,7,Rain,203
2012-11-4,50,41,32,46,41,32,100,91,66,29.59,29.43,29.30,6,6,3,17,7,30,0.00,7,Rain,176
2012-11-5,50,44,37,46,42,36,100,90,71,29.86,29.56,29.42,6,6,4,13,9,,0.00,6,Rain,253
2012-11-6,51,42,32,46,38,30,100,94,62,30.09,30.01,29.86,6,4,0,20,6,,0.00,6,Fog-Rain,241
2012-11-7,50,49,48,50,48,45,100,93,82,30.24,30.19,30.09,6,4,1,17,12,,0.00,7,Rain,247
2012-11-8,51,50,48,48,46,43,100,87,76,30.18,30.07,30.04,6,6,3,15,12,,0.00,8,Rain,234
2012-11-9,51,50,48,48,44,39,100,83,66,30.04,29.90,29.68,6,6,4,12,7,,0.00,8,Rain,190
2012-11-10,53,50,48,52,49,45,100,95,87,29.68,29.51,29.42,6,5,3,17,7,,0.00,7,Rain,192
2012-11-11,51,46,41,46,44,41,100,91,76,30.09,29.85,29.53,6,5,2,10,8,,0.00,6,,221
2012-11-12,46,44,41,43,41,39,100,94,81,30.30,30.19,30.09,6,4,1,9,6,,0.00,7,Fog,205
2012-11-13,50,47,44,48,46,43,100,96,87,30.42,30.36,30.30,6,5,2,10,7,21,0.00,8,Rain,189
2012-11-14,53,42,32,48,41,32,100,91,58,30.42,30.34,30.27,6,5,3,9,3,,0.00,7,,89
2012-11-15,44,35,26,43,34,27,100,96,81,30.27,30.22,30.15,5,2,0,6,3,,0.00,7,Fog-Rain,89
2012-11-16,42,38,35,37,36,34,100,89,81,30.15,30.03,29.92,5,4,2,6,3,23,0.00,7,,133
2012-11-17,48,42,35,46,41,34,100,96,87,29.92,29.81,29.77,6,4,1,10,5,,0.00,7,Rain,186
2012-11-18,50,40,30,48,41,30,100,98,82,30.04,29.93,29.80,6,2,0,6,3,,0.00,6,Fog-Rain,356
2012-11-19,51,40,30,50,41,30,100,99,88,30.04,29.98,29.92,6,2,0,9,4,,0.00,8,Fog-Snow,148
2012-11-20,55,50,44,50,46,43,100,87,67,29.98,29.97,29.95,6,5,3,12,7,23,0.00,7,,175
2012-11-21,51,45,39,45,42,37,93,85,71,30.04,29.86,29.80,6,6,5,24,9,37,0.00,7,Rain,181
2012-11-22,51,46,42,45,42,39,93,84,71,30.12,30.07,29.98,6,6,6,13,9,23,0.00,4,,195
2012-11-23,48,42,35,45,42,36,100,89,71,30.04,29.94,29.83,6,5,0,14,9,29,0.00,8,Fog-Rain,190
2012-11-24,50,41,32,48,42,32,100,100,93,30.06,29.96,29.68,6,1,0,12,4,,0.00,8,Fog-Rain-Snow,85
2012-11-25,57,52,48,50,44,39,94,75,62,29.83,29.70,29.53,6,6,4,26,14,41,0.00,7,Rain,209
2012-11-26,53,48,42,46,43,39,93,80,71,29.80,29.59,29.50,6,6,3,14,8,25,0.00,6,Rain,181
2012-11-27,48,44,39,43,41,39,100,87,71,29.71,29.61,29.53,6,6,4,13,6,,0.00,7,Rain,171
2012-11-28,48,40,33,43,40,34,100,94,71,29.77,29.72,29.71,6,5,0,9,3,,0.00,7,Fog-Rain,11
2012-11-29,46,38,30,39,34,30,100,90,66,29.77,29.74,29.71,6,6,1,10,5,,0.00,4,Fog-Rain,340
2012-11-30,44,35,26,41,33,27,100,98,76,29.89,29.80,29.77,6,3,0,9,2,,0.00,6,Fog-Rain,224